sensor_id;sensor_type;location;lat;lon;timestamp;temperature;humidity
1075;DHT22;526;51.392;12.448;2022-12-18T00:01:03;-7.50;97.30
1075;DHT22;526;51.392;12.448;2022-12-18T00:03:32;-7.60;97.30
1075;DHT22;526;51.392;12.448;2022-12-18T00:05:58;-7.60;97.30
1075;DHT22;526;51.392;12.448;2022-12-18T00:08:24;-7.70;97.30
1075;DHT22;526;51.392;12.448;2022-12-18T00:10:49;-7.70;97.30
1075;DHT22;526;51.392;12.448;2022-12-18T00:13:15;-7.70;97.30
1075;DHT22;526;51.392;12.448;2022-12-18T00:15:40;-7.80;97.30
1075;DHT22;526;51.392;12.448;2022-12-18T00:18:06;-7.80;97.30
1075;DHT22;526;51.392;12.448;2022-12-18T00:20:39;-7.90;97.30
1075;DHT22;526;51.392;12.448;2022-12-18T00:23:06;-7.90;97.30
1075;DHT22;526;51.392;12.448;2022-12-18T00:25:35;-8.00;97.30
1075;DHT22;526;51.392;12.448;2022-12-18T00:28:03;-8.10;97.30
1075;DHT22;526;51.392;12.448;2022-12-18T00:30:28;-8.10;97.30
1075;DHT22;526;51.392;12.448;2022-12-18T00:32:54;-8.10;97.30
1075;DHT22;526;51.392;12.448;2022-12-18T00:35:20;-8.20;97.30
1075;DHT22;526;51.392;12.448;2022-12-18T00:37:45;-8.20;97.30
1075;DHT22;526;51.392;12.448;2022-12-18T00:40:11;-8.20;97.30
1075;DHT22;526;51.392;12.448;2022-12-18T00:42:37;-8.30;97.30
1075;DHT22;526;51.392;12.448;2022-12-18T00:45:29;-8.30;97.30
1075;DHT22;526;51.392;12.448;2022-12-18T00:47:55;-8.40;97.30
1075;DHT22;526;51.392;12.448;2022-12-18T00:50:22;-8.50;97.30
1075;DHT22;526;51.392;12.448;2022-12-18T00:52:48;-8.50;97.30
1075;DHT22;526;51.392;12.448;2022-12-18T00:55:14;-8.50;97.30
1075;DHT22;526;51.392;12.448;2022-12-18T00:57:40;-8.40;97.30
1075;DHT22;526;51.392;12.448;2022-12-18T01:00:07;-8.40;97.30
1075;DHT22;526;51.392;12.448;2022-12-18T01:02:34;-8.40;97.30
1075;DHT22;526;51.392;12.448;2022-12-18T01:04:59;-8.40;97.30
1075;DHT22;526;51.392;12.448;2022-12-18T01:07:25;-8.50;97.30
1075;DHT22;526;51.392;12.448;2022-12-18T01:09:50;-8.50;97.30
1075;DHT22;526;51.392;12.448;2022-12-18T01:12:16;-8.50;97.30
1075;DHT22;526;51.392;12.448;2022-12-18T01:14:41;-8.60;97.30
1075;DHT22;526;51.392;12.448;2022-12-18T01:17:07;-8.60;97.30
1075;DHT22;526;51.392;12.448;2022-12-18T01:19:32;-8.70;97.30
1075;DHT22;526;51.392;12.448;2022-12-18T01:21:58;-8.70;97.30
1075;DHT22;526;51.392;12.448;2022-12-18T01:24:24;-8.70;97.30
1075;DHT22;526;51.392;12.448;2022-12-18T01:26:50;-8.70;97.30
1075;DHT22;526;51.392;12.448;2022-12-18T01:29:15;-8.70;97.30
1075;DHT22;526;51.392;12.448;2022-12-18T01:31:41;-8.80;97.30
1075;DHT22;526;51.392;12.448;2022-12-18T01:34:06;-8.80;97.30
1075;DHT22;526;51.392;12.448;2022-12-18T01:36:35;-8.90;97.30
1075;DHT22;526;51.392;12.448;2022-12-18T01:39:02;-8.90;97.30
1075;DHT22;526;51.392;12.448;2022-12-18T01:41:30;-8.90;97.30
1075;DHT22;526;51.392;12.448;2022-12-18T01:49:51;-9.00;97.30
1075;DHT22;526;51.392;12.448;2022-12-18T01:52:17;-9.10;97.30
1075;DHT22;526;51.392;12.448;2022-12-18T01:54:44;-9.10;97.30
1075;DHT22;526;51.392;12.448;2022-12-18T01:57:10;-9.10;97.30
1075;DHT22;526;51.392;12.448;2022-12-18T01:59:36;-9.20;97.30
1075;DHT22;526;51.392;12.448;2022-12-18T02:02:04;-9.20;97.30
1075;DHT22;526;51.392;12.448;2022-12-18T02:04:29;-9.20;97.30
1075;DHT22;526;51.392;12.448;2022-12-18T02:09:55;-9.20;97.30
1075;DHT22;526;51.392;12.448;2022-12-18T02:12:27;-9.30;97.30
1075;DHT22;526;51.392;12.448;2022-12-18T02:15:05;-9.30;97.30
1075;DHT22;526;51.392;12.448;2022-12-18T02:17:58;-9.30;97.30
1075;DHT22;526;51.392;12.448;2022-12-18T02:20:33;-9.40;97.30
1075;DHT22;526;51.392;12.448;2022-12-18T02:23:24;-9.40;97.30
1075;DHT22;526;51.392;12.448;2022-12-18T02:28:29;-9.40;97.30
1075;DHT22;526;51.392;12.448;2022-12-18T02:30:59;-9.40;97.30
1075;DHT22;526;51.392;12.448;2022-12-18T02:33:27;-9.40;97.30
1075;DHT22;526;51.392;12.448;2022-12-18T02:35:55;-9.40;97.30
1075;DHT22;526;51.392;12.448;2022-12-18T02:38:21;-9.40;97.30
1075;DHT22;526;51.392;12.448;2022-12-18T02:40:48;-9.30;97.30
1075;DHT22;526;51.392;12.448;2022-12-18T02:43:15;-9.30;97.30
1075;DHT22;526;51.392;12.448;2022-12-18T02:45:58;-9.30;97.30
1075;DHT22;526;51.392;12.448;2022-12-18T02:48:35;-9.30;97.30
1075;DHT22;526;51.392;12.448;2022-12-18T02:51:11;-9.30;97.30
1075;DHT22;526;51.392;12.448;2022-12-18T02:53:47;-9.30;97.30
1075;DHT22;526;51.392;12.448;2022-12-18T02:56:20;-9.30;97.30
1075;DHT22;526;51.392;12.448;2022-12-18T02:59:00;-9.30;97.30
1075;DHT22;526;51.392;12.448;2022-12-18T03:04:26;-9.30;97.30
1075;DHT22;526;51.392;12.448;2022-12-18T03:06:55;-9.30;97.30
1075;DHT22;526;51.392;12.448;2022-12-18T03:09:27;-9.30;97.30
1075;DHT22;526;51.392;12.448;2022-12-18T03:12:01;-9.30;97.30
1075;DHT22;526;51.392;12.448;2022-12-18T03:14:50;-9.30;97.30
1075;DHT22;526;51.392;12.448;2022-12-18T03:17:20;-9.30;97.30
1075;DHT22;526;51.392;12.448;2022-12-18T03:19:49;-9.30;97.30
1075;DHT22;526;51.392;12.448;2022-12-18T03:22:17;-9.40;97.30
1075;DHT22;526;51.392;12.448;2022-12-18T03:24:42;-9.30;97.30
1075;DHT22;526;51.392;12.448;2022-12-18T03:27:12;-9.40;97.30
1075;DHT22;526;51.392;12.448;2022-12-18T03:29:44;-9.30;97.30
1075;DHT22;526;51.392;12.448;2022-12-18T03:32:15;-9.30;97.30
1075;DHT22;526;51.392;12.448;2022-12-18T03:34:47;-9.30;97.30
1075;DHT22;526;51.392;12.448;2022-12-18T03:37:14;-9.30;97.30
1075;DHT22;526;51.392;12.448;2022-12-18T03:39:40;-9.30;97.30
1075;DHT22;526;51.392;12.448;2022-12-18T03:48:28;-9.30;97.30
1075;DHT22;526;51.392;12.448;2022-12-18T03:51:08;-9.40;97.30
1075;DHT22;526;51.392;12.448;2022-12-18T03:53:49;-9.40;97.30
1075;DHT22;526;51.392;12.448;2022-12-18T03:56:18;-9.40;97.30
1075;DHT22;526;51.392;12.448;2022-12-18T03:58:45;-9.40;97.30
1075;DHT22;526;51.392;12.448;2022-12-18T04:01:15;-9.30;97.30
1075;DHT22;526;51.392;12.448;2022-12-18T04:03:42;-9.30;97.30
1075;DHT22;526;51.392;12.448;2022-12-18T04:06:09;-9.30;97.30
1075;DHT22;526;51.392;12.448;2022-12-18T04:08:35;-9.30;97.30
1075;DHT22;526;51.392;12.448;2022-12-18T04:11:02;-9.20;97.30
1075;DHT22;526;51.392;12.448;2022-12-18T04:13:32;-9.20;97.30
1075;DHT22;526;51.392;12.448;2022-12-18T04:15:58;-9.20;97.30
1075;DHT22;526;51.392;12.448;2022-12-18T04:18:23;-9.10;97.30
1075;DHT22;526;51.392;12.448;2022-12-18T04:20:49;-9.10;97.30
1075;DHT22;526;51.392;12.448;2022-12-18T04:23:15;-9.10;97.30
1075;DHT22;526;51.392;12.448;2022-12-18T04:25:40;-9.10;97.30
1075;DHT22;526;51.392;12.448;2022-12-18T04:28:06;-9.20;97.30
1075;DHT22;526;51.392;12.448;2022-12-18T04:30:31;-9.10;97.30
1075;DHT22;526;51.392;12.448;2022-12-18T04:32:57;-9.10;97.30
1075;DHT22;526;51.392;12.448;2022-12-18T04:35:22;-9.10;97.30
1075;DHT22;526;51.392;12.448;2022-12-18T04:37:48;-9.10;97.30
1075;DHT22;526;51.392;12.448;2022-12-18T04:40:14;-9.10;97.30
1075;DHT22;526;51.392;12.448;2022-12-18T04:42:39;-9.10;97.30
1075;DHT22;526;51.392;12.448;2022-12-18T04:45:06;-9.10;97.30
1075;DHT22;526;51.392;12.448;2022-12-18T04:47:32;-9.00;97.30
1075;DHT22;526;51.392;12.448;2022-12-18T04:49:57;-9.00;97.30
1075;DHT22;526;51.392;12.448;2022-12-18T04:52:23;-9.00;97.30
1075;DHT22;526;51.392;12.448;2022-12-18T04:54:49;-9.00;97.30
1075;DHT22;526;51.392;12.448;2022-12-18T04:57:14;-8.90;97.30
1075;DHT22;526;51.392;12.448;2022-12-18T04:59:40;-8.90;97.30
1075;DHT22;526;51.392;12.448;2022-12-18T05:02:05;-8.90;97.30
1075;DHT22;526;51.392;12.448;2022-12-18T05:04:31;-8.90;97.30
1075;DHT22;526;51.392;12.448;2022-12-18T05:06:57;-8.90;97.30
1075;DHT22;526;51.392;12.448;2022-12-18T05:09:23;-9.00;97.30
1075;DHT22;526;51.392;12.448;2022-12-18T05:11:48;-9.00;97.30
1075;DHT22;526;51.392;12.448;2022-12-18T05:14:14;-9.10;97.30
1075;DHT22;526;51.392;12.448;2022-12-18T05:16:39;-9.10;97.30
1075;DHT22;526;51.392;12.448;2022-12-18T05:19:05;-9.10;97.30
1075;DHT22;526;51.392;12.448;2022-12-18T05:21:30;-9.10;97.30
1075;DHT22;526;51.392;12.448;2022-12-18T05:23:56;-9.10;97.30
1075;DHT22;526;51.392;12.448;2022-12-18T05:26:21;-9.10;97.30
1075;DHT22;526;51.392;12.448;2022-12-18T05:28:47;-9.10;97.30
1075;DHT22;526;51.392;12.448;2022-12-18T05:31:13;-9.10;97.30
1075;DHT22;526;51.392;12.448;2022-12-18T05:33:39;-9.00;97.30
1075;DHT22;526;51.392;12.448;2022-12-18T05:36:06;-9.00;97.30
1075;DHT22;526;51.392;12.448;2022-12-18T05:38:34;-9.00;97.30
1075;DHT22;526;51.392;12.448;2022-12-18T05:41:00;-9.10;97.30
1075;DHT22;526;51.392;12.448;2022-12-18T05:43:26;-9.00;97.30
1075;DHT22;526;51.392;12.448;2022-12-18T05:45:52;-9.00;97.30
1075;DHT22;526;51.392;12.448;2022-12-18T05:48:19;-9.00;97.30
1075;DHT22;526;51.392;12.448;2022-12-18T05:50:46;-9.00;97.30
1075;DHT22;526;51.392;12.448;2022-12-18T05:53:13;-9.00;97.30
1075;DHT22;526;51.392;12.448;2022-12-18T05:55:41;-9.00;97.30
1075;DHT22;526;51.392;12.448;2022-12-18T05:58:07;-9.00;97.30
1075;DHT22;526;51.392;12.448;2022-12-18T06:00:39;-9.00;97.30
1075;DHT22;526;51.392;12.448;2022-12-18T06:03:06;-9.00;97.30
1075;DHT22;526;51.392;12.448;2022-12-18T06:05:39;-9.10;97.30
1075;DHT22;526;51.392;12.448;2022-12-18T06:08:05;-9.10;97.30
1075;DHT22;526;51.392;12.448;2022-12-18T06:10:31;-9.10;97.30
1075;DHT22;526;51.392;12.448;2022-12-18T06:12:57;-9.10;97.30
1075;DHT22;526;51.392;12.448;2022-12-18T06:15:23;-9.20;97.30
1075;DHT22;526;51.392;12.448;2022-12-18T06:17:49;-9.20;97.30
1075;DHT22;526;51.392;12.448;2022-12-18T06:20:14;-9.20;97.30
1075;DHT22;526;51.392;12.448;2022-12-18T06:22:40;-9.20;97.30
1075;DHT22;526;51.392;12.448;2022-12-18T06:25:06;-9.20;97.30
1075;DHT22;526;51.392;12.448;2022-12-18T06:27:32;-9.10;97.30
1075;DHT22;526;51.392;12.448;2022-12-18T06:29:59;-9.10;97.30
1075;DHT22;526;51.392;12.448;2022-12-18T06:32:24;-9.10;97.30
1075;DHT22;526;51.392;12.448;2022-12-18T06:34:50;-9.10;97.30
1075;DHT22;526;51.392;12.448;2022-12-18T06:37:15;-9.10;97.30
1075;DHT22;526;51.392;12.448;2022-12-18T06:39:41;-9.10;97.30
1075;DHT22;526;51.392;12.448;2022-12-18T06:42:07;-9.10;97.30
1075;DHT22;526;51.392;12.448;2022-12-18T06:44:32;-9.10;97.30
1075;DHT22;526;51.392;12.448;2022-12-18T06:46:58;-9.10;97.30
1075;DHT22;526;51.392;12.448;2022-12-18T06:49:23;-9.00;97.30
1075;DHT22;526;51.392;12.448;2022-12-18T06:51:49;-9.00;97.30
1075;DHT22;526;51.392;12.448;2022-12-18T06:54:15;-9.00;97.30
1075;DHT22;526;51.392;12.448;2022-12-18T06:56:40;-9.00;97.30
1075;DHT22;526;51.392;12.448;2022-12-18T06:59:06;-9.00;97.30
1075;DHT22;526;51.392;12.448;2022-12-18T07:01:31;-9.00;97.30
1075;DHT22;526;51.392;12.448;2022-12-18T07:03:57;-9.00;97.30
1075;DHT22;526;51.392;12.448;2022-12-18T07:06:25;-9.00;97.30
1075;DHT22;526;51.392;12.448;2022-12-18T07:08:52;-9.00;97.30
1075;DHT22;526;51.392;12.448;2022-12-18T07:11:18;-9.00;97.30
1075;DHT22;526;51.392;12.448;2022-12-18T07:13:44;-9.00;97.30
1075;DHT22;526;51.392;12.448;2022-12-18T07:16:16;-9.00;97.30
1075;DHT22;526;51.392;12.448;2022-12-18T07:18:42;-9.00;97.30
1075;DHT22;526;51.392;12.448;2022-12-18T07:21:10;-9.10;97.30
1075;DHT22;526;51.392;12.448;2022-12-18T07:23:36;-9.10;97.30
1075;DHT22;526;51.392;12.448;2022-12-18T07:26:03;-9.10;97.30
1075;DHT22;526;51.392;12.448;2022-12-18T07:28:30;-9.10;97.30
1075;DHT22;526;51.392;12.448;2022-12-18T07:30:55;-9.20;97.30
1075;DHT22;526;51.392;12.448;2022-12-18T07:33:21;-9.20;97.30
1075;DHT22;526;51.392;12.448;2022-12-18T07:35:47;-9.20;97.30
1075;DHT22;526;51.392;12.448;2022-12-18T07:38:12;-9.20;97.30
1075;DHT22;526;51.392;12.448;2022-12-18T07:40:38;-9.20;97.30
1075;DHT22;526;51.392;12.448;2022-12-18T07:43:03;-9.20;97.30
1075;DHT22;526;51.392;12.448;2022-12-18T07:45:29;-9.20;97.30
1075;DHT22;526;51.392;12.448;2022-12-18T07:47:54;-9.20;97.30
1075;DHT22;526;51.392;12.448;2022-12-18T07:50:20;-9.20;97.30
1075;DHT22;526;51.392;12.448;2022-12-18T07:52:45;-9.20;97.30
1075;DHT22;526;51.392;12.448;2022-12-18T07:55:11;-9.10;97.30
1075;DHT22;526;51.392;12.448;2022-12-18T07:57:37;-9.10;97.30
1075;DHT22;526;51.392;12.448;2022-12-18T08:00:03;-9.00;97.30
1075;DHT22;526;51.392;12.448;2022-12-18T08:02:31;-9.00;97.30
1075;DHT22;526;51.392;12.448;2022-12-18T08:04:56;-9.00;97.30
1075;DHT22;526;51.392;12.448;2022-12-18T08:07:22;-8.90;97.30
1075;DHT22;526;51.392;12.448;2022-12-18T08:09:47;-8.80;97.30
1075;DHT22;526;51.392;12.448;2022-12-18T08:12:13;-8.80;97.30
1075;DHT22;526;51.392;12.448;2022-12-18T08:14:38;-8.70;97.30
1075;DHT22;526;51.392;12.448;2022-12-18T08:17:04;-8.70;97.30
1075;DHT22;526;51.392;12.448;2022-12-18T08:19:30;-8.70;97.30
1075;DHT22;526;51.392;12.448;2022-12-18T08:21:55;-8.60;97.30
1075;DHT22;526;51.392;12.448;2022-12-18T08:24:22;-8.50;97.30
1075;DHT22;526;51.392;12.448;2022-12-18T08:26:47;-8.50;97.30
1075;DHT22;526;51.392;12.448;2022-12-18T08:29:13;-8.40;97.30
1075;DHT22;526;51.392;12.448;2022-12-18T08:31:39;-8.30;97.30
1075;DHT22;526;51.392;12.448;2022-12-18T08:34:04;-8.20;97.30
1075;DHT22;526;51.392;12.448;2022-12-18T08:36:30;-8.10;97.30
1075;DHT22;526;51.392;12.448;2022-12-18T08:38:56;-8.10;97.30
1075;DHT22;526;51.392;12.448;2022-12-18T08:41:22;-8.00;97.30
1075;DHT22;526;51.392;12.448;2022-12-18T08:43:48;-7.90;97.30
1075;DHT22;526;51.392;12.448;2022-12-18T08:46:38;-7.80;97.30
1075;DHT22;526;51.392;12.448;2022-12-18T08:49:04;-7.80;97.30
1075;DHT22;526;51.392;12.448;2022-12-18T08:51:30;-7.70;97.30
1075;DHT22;526;51.392;12.448;2022-12-18T08:53:55;-7.60;97.30
1075;DHT22;526;51.392;12.448;2022-12-18T08:56:21;-7.50;97.30
1075;DHT22;526;51.392;12.448;2022-12-18T08:58:46;-7.50;97.30
1075;DHT22;526;51.392;12.448;2022-12-18T09:01:13;-7.40;97.30
1075;DHT22;526;51.392;12.448;2022-12-18T09:03:39;-7.30;97.30
1075;DHT22;526;51.392;12.448;2022-12-18T09:06:05;-7.20;97.30
1075;DHT22;526;51.392;12.448;2022-12-18T09:08:31;-7.20;97.30
1075;DHT22;526;51.392;12.448;2022-12-18T09:10:56;-7.20;97.30
1075;DHT22;526;51.392;12.448;2022-12-18T09:13:22;-7.10;97.30
1075;DHT22;526;51.392;12.448;2022-12-18T09:15:50;-7.00;97.30
1075;DHT22;526;51.392;12.448;2022-12-18T09:18:17;-7.00;97.30
1075;DHT22;526;51.392;12.448;2022-12-18T09:20:43;-6.90;97.30
1075;DHT22;526;51.392;12.448;2022-12-18T09:23:09;-6.90;97.30
1075;DHT22;526;51.392;12.448;2022-12-18T09:25:35;-6.80;97.30
1075;DHT22;526;51.392;12.448;2022-12-18T09:28:03;-6.80;97.30
1075;DHT22;526;51.392;12.448;2022-12-18T09:30:29;-6.70;97.30
1075;DHT22;526;51.392;12.448;2022-12-18T09:32:55;-6.70;97.30
1075;DHT22;526;51.392;12.448;2022-12-18T09:35:21;-6.60;97.30
1075;DHT22;526;51.392;12.448;2022-12-18T09:37:46;-6.60;97.30
1075;DHT22;526;51.392;12.448;2022-12-18T09:40:21;-6.50;97.30
1075;DHT22;526;51.392;12.448;2022-12-18T09:42:59;-6.40;97.30
1075;DHT22;526;51.392;12.448;2022-12-18T09:45:26;-6.40;97.30
1075;DHT22;526;51.392;12.448;2022-12-18T09:47:53;-6.30;97.30
1075;DHT22;526;51.392;12.448;2022-12-18T09:50:24;-6.30;97.30
1075;DHT22;526;51.392;12.448;2022-12-18T09:52:55;-6.30;97.30
1075;DHT22;526;51.392;12.448;2022-12-18T09:55:31;-6.20;97.30
1075;DHT22;526;51.392;12.448;2022-12-18T10:00:44;-6.00;97.30
1075;DHT22;526;51.392;12.448;2022-12-18T10:03:14;-5.90;97.30
1075;DHT22;526;51.392;12.448;2022-12-18T10:05:54;-5.90;97.30
1075;DHT22;526;51.392;12.448;2022-12-18T10:08:33;-5.80;97.30
1075;DHT22;526;51.392;12.448;2022-12-18T10:11:56;-5.70;97.30
1075;DHT22;526;51.392;12.448;2022-12-18T10:14:16;-5.60;97.30
1075;DHT22;526;51.392;12.448;2022-12-18T10:20:00;-5.40;97.30
1075;DHT22;526;51.392;12.448;2022-12-18T10:22:55;-5.30;97.30
1075;DHT22;526;51.392;12.448;2022-12-18T10:25:23;-5.20;97.30
1075;DHT22;526;51.392;12.448;2022-12-18T10:27:57;-5.10;97.30
1075;DHT22;526;51.392;12.448;2022-12-18T10:30:24;-5.00;97.30
1075;DHT22;526;51.392;12.448;2022-12-18T10:32:51;-4.90;97.30
1075;DHT22;526;51.392;12.448;2022-12-18T10:35:25;-4.80;97.30
1075;DHT22;526;51.392;12.448;2022-12-18T10:38:07;-4.80;97.30
1075;DHT22;526;51.392;12.448;2022-12-18T10:40:48;-4.70;97.30
1075;DHT22;526;51.392;12.448;2022-12-18T10:43:15;-4.60;97.30
1075;DHT22;526;51.392;12.448;2022-12-18T10:45:42;-4.40;97.30
1075;DHT22;526;51.392;12.448;2022-12-18T10:48:22;-4.30;97.30
1075;DHT22;526;51.392;12.448;2022-12-18T10:50:49;-4.20;97.30
1075;DHT22;526;51.392;12.448;2022-12-18T10:53:23;-4.00;97.30
1075;DHT22;526;51.392;12.448;2022-12-18T10:55:49;-3.90;97.30
1075;DHT22;526;51.392;12.448;2022-12-18T10:58:46;-3.90;97.30
1075;DHT22;526;51.392;12.448;2022-12-18T11:01:20;-3.80;97.30
1075;DHT22;526;51.392;12.448;2022-12-18T11:04:31;-3.80;97.30
1075;DHT22;526;51.392;12.448;2022-12-18T11:06:31;-3.70;97.30
1075;DHT22;526;51.392;12.448;2022-12-18T11:11:27;-3.50;97.30
1075;DHT22;526;51.392;12.448;2022-12-18T11:16:19;-3.20;97.30
1075;DHT22;526;51.392;12.448;2022-12-18T11:18:45;-3.10;97.30
1075;DHT22;526;51.392;12.448;2022-12-18T11:21:12;-3.20;97.30
1075;DHT22;526;51.392;12.448;2022-12-18T11:23:52;-3.10;97.30
1075;DHT22;526;51.392;12.448;2022-12-18T11:26:18;-3.00;97.30
1075;DHT22;526;51.392;12.448;2022-12-18T11:28:51;-2.90;97.30
1075;DHT22;526;51.392;12.448;2022-12-18T11:33:51;-2.80;97.30
1075;DHT22;526;51.392;12.448;2022-12-18T11:36:18;-2.60;97.30
1075;DHT22;526;51.392;12.448;2022-12-18T11:38:46;-2.50;97.30
1075;DHT22;526;51.392;12.448;2022-12-18T11:41:36;-2.40;97.30
1075;DHT22;526;51.392;12.448;2022-12-18T11:44:27;-2.20;97.30
1075;DHT22;526;51.392;12.448;2022-12-18T11:47:03;-2.00;97.30
1075;DHT22;526;51.392;12.448;2022-12-18T11:49:33;-1.80;97.30
1075;DHT22;526;51.392;12.448;2022-12-18T11:54:34;-1.50;97.30
1075;DHT22;526;51.392;12.448;2022-12-18T12:00:12;-1.50;97.30
1075;DHT22;526;51.392;12.448;2022-12-18T12:21:39;-1.10;97.30
1075;DHT22;526;51.392;12.448;2022-12-18T12:24:30;-0.90;97.30
1075;DHT22;526;51.392;12.448;2022-12-18T12:33:02;-0.90;97.30
1075;DHT22;526;51.392;12.448;2022-12-18T12:38:35;-1.20;97.30
1075;DHT22;526;51.392;12.448;2022-12-18T12:41:08;-1.10;97.30
1075;DHT22;526;51.392;12.448;2022-12-18T12:43:58;-1.10;97.30
1075;DHT22;526;51.392;12.448;2022-12-18T12:46:26;-1.10;97.30
1075;DHT22;526;51.392;12.448;2022-12-18T12:49:14;-1.20;97.30
1075;DHT22;526;51.392;12.448;2022-12-18T12:51:44;-1.50;97.30
1075;DHT22;526;51.392;12.448;2022-12-18T12:54:23;-1.70;97.30
1075;DHT22;526;51.392;12.448;2022-12-18T12:57:17;-1.80;97.30
1075;DHT22;526;51.392;12.448;2022-12-18T13:00:05;-1.80;97.30
1075;DHT22;526;51.392;12.448;2022-12-18T13:05:21;-1.40;97.30
1075;DHT22;526;51.392;12.448;2022-12-18T13:07:56;-1.10;97.30
1075;DHT22;526;51.392;12.448;2022-12-18T13:10:30;-0.80;97.30
1075;DHT22;526;51.392;12.448;2022-12-18T13:13:09;-0.50;97.30
1075;DHT22;526;51.392;12.448;2022-12-18T13:15:47;-0.30;96.70
1075;DHT22;526;51.392;12.448;2022-12-18T13:23:31;0.00;95.10
1075;DHT22;526;51.392;12.448;2022-12-18T13:36:43;-0.60;95.20
1075;DHT22;526;51.392;12.448;2022-12-18T13:41:35;-0.80;95.80
1075;DHT22;526;51.392;12.448;2022-12-18T13:46:55;-1.00;95.80
1075;DHT22;526;51.392;12.448;2022-12-18T13:49:28;-1.30;96.00
1075;DHT22;526;51.392;12.448;2022-12-18T13:51:56;-1.50;96.30
1075;DHT22;526;51.392;12.448;2022-12-18T13:54:40;-1.70;96.50
1075;DHT22;526;51.392;12.448;2022-12-18T13:57:26;-2.00;97.00
1075;DHT22;526;51.392;12.448;2022-12-18T13:59:52;-2.20;97.30
1075;DHT22;526;51.392;12.448;2022-12-18T14:02:22;-2.40;97.30
1075;DHT22;526;51.392;12.448;2022-12-18T14:04:49;-2.60;97.30
1075;DHT22;526;51.392;12.448;2022-12-18T14:07:18;-2.70;97.30
1075;DHT22;526;51.392;12.448;2022-12-18T14:09:50;-2.90;97.30
1075;DHT22;526;51.392;12.448;2022-12-18T14:12:31;-3.00;97.30
1075;DHT22;526;51.392;12.448;2022-12-18T14:15:30;-3.10;97.30
1075;DHT22;526;51.392;12.448;2022-12-18T14:18:02;-3.20;97.30
1075;DHT22;526;51.392;12.448;2022-12-18T14:20:31;-3.30;97.30
1075;DHT22;526;51.392;12.448;2022-12-18T14:22:58;-3.40;97.30
1075;DHT22;526;51.392;12.448;2022-12-18T14:25:29;-3.50;97.30
1075;DHT22;526;51.392;12.448;2022-12-18T14:33:02;-3.70;97.30
1075;DHT22;526;51.392;12.448;2022-12-18T14:35:29;-3.80;97.30
1075;DHT22;526;51.392;12.448;2022-12-18T14:41:10;-4.00;97.30
1075;DHT22;526;51.392;12.448;2022-12-18T14:43:38;-4.10;97.30
1075;DHT22;526;51.392;12.448;2022-12-18T14:48:53;-4.20;97.30
1075;DHT22;526;51.392;12.448;2022-12-18T14:51:21;-4.20;97.30
1075;DHT22;526;51.392;12.448;2022-12-18T14:53:59;-4.30;97.30
1075;DHT22;526;51.392;12.448;2022-12-18T14:56:36;-4.30;97.30
1075;DHT22;526;51.392;12.448;2022-12-18T14:59:05;-4.40;97.30
1075;DHT22;526;51.392;12.448;2022-12-18T15:01:44;-4.40;97.30
1075;DHT22;526;51.392;12.448;2022-12-18T15:04:26;-4.50;97.30
1075;DHT22;526;51.392;12.448;2022-12-18T15:07:18;-4.50;97.30
1075;DHT22;526;51.392;12.448;2022-12-18T15:26:04;-4.80;97.30
1075;DHT22;526;51.392;12.448;2022-12-18T15:28:47;-4.80;97.30
1075;DHT22;526;51.392;12.448;2022-12-18T15:33:44;-4.90;97.30
1075;DHT22;526;51.392;12.448;2022-12-18T15:36:16;-4.90;97.30
1075;DHT22;526;51.392;12.448;2022-12-18T15:38:49;-4.90;97.30
1075;DHT22;526;51.392;12.448;2022-12-18T15:41:19;-4.90;97.30
1075;DHT22;526;51.392;12.448;2022-12-18T15:43:48;-4.90;97.30
1075;DHT22;526;51.392;12.448;2022-12-18T15:46:20;-4.90;97.30
1075;DHT22;526;51.392;12.448;2022-12-18T15:48:51;-4.90;97.30
1075;DHT22;526;51.392;12.448;2022-12-18T15:51:25;-5.00;97.30
1075;DHT22;526;51.392;12.448;2022-12-18T15:53:54;-5.00;97.30
1075;DHT22;526;51.392;12.448;2022-12-18T15:56:20;-5.10;97.30
1075;DHT22;526;51.392;12.448;2022-12-18T15:59:11;-5.10;97.30
1075;DHT22;526;51.392;12.448;2022-12-18T16:01:37;-5.10;97.30
1075;DHT22;526;51.392;12.448;2022-12-18T16:04:03;-5.10;97.30
1075;DHT22;526;51.392;12.448;2022-12-18T16:06:28;-5.10;97.30
1075;DHT22;526;51.392;12.448;2022-12-18T16:08:54;-5.10;97.30
1075;DHT22;526;51.392;12.448;2022-12-18T16:11:28;-5.10;97.30
1075;DHT22;526;51.392;12.448;2022-12-18T16:14:23;-5.10;97.30
1075;DHT22;526;51.392;12.448;2022-12-18T16:16:54;-5.10;97.30
1075;DHT22;526;51.392;12.448;2022-12-18T16:19:20;-5.10;97.30
1075;DHT22;526;51.392;12.448;2022-12-18T16:21:47;-5.10;97.30
1075;DHT22;526;51.392;12.448;2022-12-18T16:24:16;-5.20;97.30
1075;DHT22;526;51.392;12.448;2022-12-18T16:26:42;-5.10;97.30
1075;DHT22;526;51.392;12.448;2022-12-18T16:29:08;-5.10;97.30
1075;DHT22;526;51.392;12.448;2022-12-18T16:31:34;-5.10;97.30
1075;DHT22;526;51.392;12.448;2022-12-18T16:34:28;-5.10;97.30
1075;DHT22;526;51.392;12.448;2022-12-18T16:36:56;-5.10;97.30
1075;DHT22;526;51.392;12.448;2022-12-18T16:39:22;-5.10;97.30
1075;DHT22;526;51.392;12.448;2022-12-18T16:41:48;-5.20;97.30
1075;DHT22;526;51.392;12.448;2022-12-18T16:44:13;-5.20;97.30
1075;DHT22;526;51.392;12.448;2022-12-18T16:46:40;-5.20;97.30
1075;DHT22;526;51.392;12.448;2022-12-18T16:49:08;-5.20;97.30
1075;DHT22;526;51.392;12.448;2022-12-18T16:51:35;-5.20;97.30
1075;DHT22;526;51.392;12.448;2022-12-18T16:54:01;-5.20;97.30
1075;DHT22;526;51.392;12.448;2022-12-18T16:56:26;-5.20;97.30
1075;DHT22;526;51.392;12.448;2022-12-18T16:58:57;-5.20;97.30
1075;DHT22;526;51.392;12.448;2022-12-18T17:01:24;-5.20;97.30
1075;DHT22;526;51.392;12.448;2022-12-18T17:03:52;-5.30;97.30
1075;DHT22;526;51.392;12.448;2022-12-18T17:06:18;-5.30;97.30
1075;DHT22;526;51.392;12.448;2022-12-18T17:08:43;-5.30;97.30
1075;DHT22;526;51.392;12.448;2022-12-18T17:11:09;-5.30;97.30
1075;DHT22;526;51.392;12.448;2022-12-18T17:13:35;-5.40;97.30
1075;DHT22;526;51.392;12.448;2022-12-18T17:16:07;-5.40;97.30
1075;DHT22;526;51.392;12.448;2022-12-18T17:18:33;-5.40;97.30
1075;DHT22;526;51.392;12.448;2022-12-18T17:21:00;-5.40;97.30
1075;DHT22;526;51.392;12.448;2022-12-18T17:23:26;-5.30;97.30
1075;DHT22;526;51.392;12.448;2022-12-18T17:25:56;-5.30;97.30
1075;DHT22;526;51.392;12.448;2022-12-18T17:28:26;-5.30;97.30
1075;DHT22;526;51.392;12.448;2022-12-18T17:30:56;-5.20;97.30
1075;DHT22;526;51.392;12.448;2022-12-18T17:33:28;-5.20;97.30
1075;DHT22;526;51.392;12.448;2022-12-18T17:35:57;-5.20;97.30
1075;DHT22;526;51.392;12.448;2022-12-18T17:38:23;-5.20;97.30
1075;DHT22;526;51.392;12.448;2022-12-18T17:40:48;-5.20;97.30
1075;DHT22;526;51.392;12.448;2022-12-18T17:43:14;-5.20;97.30
1075;DHT22;526;51.392;12.448;2022-12-18T17:45:40;-5.20;97.30
1075;DHT22;526;51.392;12.448;2022-12-18T17:48:07;-5.10;97.30
1075;DHT22;526;51.392;12.448;2022-12-18T17:50:33;-5.10;97.30
1075;DHT22;526;51.392;12.448;2022-12-18T17:52:59;-5.10;97.30
1075;DHT22;526;51.392;12.448;2022-12-18T17:55:26;-5.10;97.30
1075;DHT22;526;51.392;12.448;2022-12-18T17:57:52;-5.10;97.30
1075;DHT22;526;51.392;12.448;2022-12-18T18:00:18;-5.00;97.30
1075;DHT22;526;51.392;12.448;2022-12-18T18:02:44;-5.00;97.30
1075;DHT22;526;51.392;12.448;2022-12-18T18:05:10;-5.00;97.30
1075;DHT22;526;51.392;12.448;2022-12-18T18:07:38;-5.00;97.30
1075;DHT22;526;51.392;12.448;2022-12-18T18:10:05;-5.00;97.30
1075;DHT22;526;51.392;12.448;2022-12-18T18:12:31;-5.00;97.30
1075;DHT22;526;51.392;12.448;2022-12-18T18:15:15;-4.90;97.30
1075;DHT22;526;51.392;12.448;2022-12-18T18:17:44;-4.90;97.30